Time;durP1;ratioP1;P1;durP2;ratioP2;P2;SDS_P1;SDS_P2;PMS_P1;PMS_P2;Temp;Humidity;BMP_temperature;BMP_pressure;BME280_temperature;BME280_humidity;BME280_pressure;Samples;Min_cycle;Max_cycle;Signal;HPM_P1;HPM_P2
2022/09/02 00:02:07;;;;;;;27.23;17.75;;;;;;;21.36;100.00;96728.72;5007605;28;20571;-68
2022/09/02 00:04:34;;;;;;;28.05;15.57;;;;;;;21.35;100.00;96727.97;5045567;28;20073;-67
2022/09/02 00:07:01;;;;;;;32.28;17.17;;;;;;;21.38;100.00;96729.88;5045306;28;20056;-68
2022/09/02 00:09:27;;;;;;;31.75;16.45;;;;;;;21.47;100.00;96727.19;5045243;28;20510;-67
2022/09/02 00:11:55;;;;;;;28.15;15.18;;;;;;;21.53;100.00;96725.38;5044864;28;20126;-67
2022/09/02 00:14:28;;;;;;;23.85;15.32;;;;;;;20.24;100.00;96532.97;5043599;28;20522;-67
2022/09/02 00:16:55;;;;;;;25.77;15.23;;;;;;;21.26;100.00;96660.19;5044384;28;20519;-67
2022/09/02 00:19:24;;;;;;;26.25;14.88;;;;;;;21.66;100.00;96717.72;5043003;28;20083;-67
2022/09/02 00:21:53;;;;;;;24.20;15.63;;;;;;;21.68;100.00;96720.88;5043404;28;20055;-67
2022/09/02 00:24:21;;;;;;;24.30;15.50;;;;;;;21.80;100.00;96722.94;5043441;28;20049;-68
2022/09/02 00:26:48;;;;;;;25.58;15.20;;;;;;;21.86;100.00;96715.47;5044178;28;20064;-68
2022/09/02 00:29:16;;;;;;;24.23;15.88;;;;;;;21.41;100.00;96633.16;5044650;28;20448;-67
2022/09/02 00:31:44;;;;;;;22.98;14.55;;;;;;;20.06;100.00;96398.47;5043312;28;20053;-66
2022/09/02 00:34:11;;;;;;;22.48;14.52;;;;;;;20.69;100.00;96514.69;5044665;28;20067;-68
2022/09/02 00:36:38;;;;;;;23.35;13.52;;;;;;;22.02;100.00;96704.06;5043269;28;20053;-67
2022/09/02 00:39:07;;;;;;;23.77;13.65;;;;;;;22.03;100.00;96708.50;5044146;28;20431;-67
2022/09/02 00:41:36;;;;;;;22.92;14.27;;;;;;;21.64;100.00;96649.72;5043210;28;20141;-67
2022/09/02 00:44:09;;;;;;;19.02;12.60;;;;;;;22.08;100.00;96707.13;5042613;28;20474;-67
2022/09/02 00:46:38;;;;;;;24.17;14.15;;;;;;;22.16;100.00;96706.41;5044984;28;20084;-68
2022/09/02 00:49:28;;;;;;;21.30;14.75;;;;;;;22.21;100.00;96711.47;5044127;28;20049;-67
2022/09/02 00:52:03;;;;;;;18.65;12.45;;;;;;;21.50;100.00;96605.06;5042917;28;20122;-68
2022/09/02 00:54:33;;;;;;;25.77;13.55;;;;;;;22.22;100.00;96710.22;5044653;28;20057;-67
2022/09/02 00:57:05;;;;;;;19.52;13.45;;;;;;;22.26;100.00;96716.56;5042967;28;20115;-67
2022/09/02 00:59:45;;;;;;;27.63;14.93;;;;;;;21.77;100.00;96633.59;5044022;28;20060;-68
2022/09/02 01:02:12;;;;;;;19.35;13.05;;;;;;;22.15;100.00;96693.56;5041329;28;20056;-67
2022/09/02 01:04:39;;;;;;;18.98;13.23;;;;;;;22.22;100.00;96704.59;5024414;28;20057;-67
2022/09/02 01:07:06;;;;;;;28.23;12.95;;;;;;;21.95;100.00;96658.38;5024683;28;20081;-68
2022/09/02 01:09:32;;;;;;;21.77;13.35;;;;;;;21.88;100.00;96662.22;5024279;28;20451;-67
2022/09/02 01:12:01;;;;;;;22.33;13.02;;;;;;;22.08;100.00;96682.50;5023239;28;20061;-66
2022/09/02 01:14:29;;;;;;;21.60;13.02;;;;;;;22.09;100.00;96709.50;5024211;28;20057;-67
2022/09/02 01:16:59;;;;;;;23.50;13.43;;;;;;;22.14;100.00;96708.91;5024760;28;20061;-67
2022/09/02 01:19:36;;;;;;;20.75;13.43;;;;;;;21.97;100.00;96684.88;5022876;28;20059;-67
2022/09/02 01:22:13;;;;;;;25.30;13.65;;;;;;;22.11;100.00;96698.50;5022840;28;20060;-67
2022/09/02 01:24:40;;;;;;;19.38;13.38;;;;;;;22.01;100.00;96679.94;5022806;28;20057;-67
2022/09/02 01:27:07;;;;;;;23.58;12.77;;;;;;;21.88;100.00;96673.50;5023125;28;20645;-67
2022/09/02 01:29:34;;;;;;;23.98;13.32;;;;;;;21.78;100.00;96660.53;5022679;28;20507;-67
2022/09/02 01:32:02;;;;;;;21.42;13.60;;;;;;;21.81;100.00;96662.50;5024149;28;20064;-67
2022/09/02 01:34:29;;;;;;;19.90;12.82;;;;;;;21.91;100.00;96700.81;5024378;28;20519;-67
2022/09/02 01:36:55;;;;;;;20.15;12.73;;;;;;;21.96;100.00;96717.16;5022548;28;20056;-67
2022/09/02 01:39:22;;;;;;;25.85;14.32;;;;;;;21.37;100.00;96671.91;5024205;28;20559;-68
2022/09/02 01:41:49;;;;;;;27.17;13.80;;;;;;;21.18;100.00;96675.75;5022518;28;20056;-67
2022/09/02 01:44:16;;;;;;;27.20;14.05;;;;;;;21.46;100.00;96708.69;5022539;28;20061;-68
2022/09/02 01:46:44;;;;;;;30.58;16.33;;;;;;;21.33;100.00;96705.06;5023976;28;20511;-68
2022/09/02 01:49:12;;;;;;;29.65;13.60;;;;;;;21.14;100.00;96705.25;5024049;28;20475;-68
2022/09/02 01:51:39;;;;;;;24.80;14.88;;;;;;;21.20;100.00;96698.63;5026419;28;20058;-68
2022/09/02 01:54:06;;;;;;;23.52;15.40;;;;;;;20.70;100.00;96640.16;5027550;28;20515;-68
2022/09/02 01:56:32;;;;;;;28.00;15.50;;;;;;;21.20;100.00;96695.81;5027763;28;20067;-68
2022/09/02 01:59:01;;;;;;;27.95;15.80;;;;;;;21.11;100.00;96692.88;5026182;28;20053;-69
2022/09/02 02:01:28;;;;;;;29.35;16.40;;;;;;;20.96;100.00;96700.94;5026478;28;20551;-70
2022/09/02 02:03:55;;;;;;;24.02;16.15;;;;;;;20.88;100.00;96696.72;5040986;28;20535;-68
2022/09/02 02:06:21;;;;;;;25.98;15.95;;;;;;;20.18;100.00;96558.03;5046339;28;20053;-68
2022/09/02 02:08:48;;;;;;;30.25;15.38;;;;;;;20.65;100.00;96653.97;5045686;28;20060;-68
2022/09/02 02:11:20;;;;;;;25.80;16.35;;;;;;;20.98;100.00;96688.44;5047343;28;20064;-68
2022/09/02 02:13:47;;;;;;;28.48;14.60;;;;;;;20.65;100.00;96654.75;5046734;28;20049;-68
2022/09/02 02:16:14;;;;;;;26.38;15.30;;;;;;;20.81;100.00;96651.09;5045980;28;20458;-67
2022/09/02 02:18:41;;;;;;;43.03;18.58;;;;;;;20.55;100.00;96626.94;5047037;28;20137;-69
2022/09/02 02:21:08;;;;;;;29.50;15.57;;;;;;;20.82;100.00;96689.25;5045608;28;20049;-68
2022/09/02 02:23:35;;;;;;;25.98;16.70;;;;;;;19.79;100.00;96504.09;5046601;28;20060;-68
2022/09/02 02:26:02;;;;;;;28.95;17.48;;;;;;;21.00;100.00;96681.13;5047060;28;20052;-69
2022/09/02 02:28:29;;;;;;;23.33;16.52;;;;;;;20.74;100.00;96634.38;5047134;28;20048;-68
2022/09/02 02:30:58;;;;;;;23.63;15.18;;;;;;;20.29;100.00;96552.09;5046872;28;20575;-68
2022/09/02 02:33:27;;;;;;;29.85;15.60;;;;;;;21.11;100.00;96692.88;5045258;28;20063;-68
2022/09/02 02:36:04;;;;;;;29.50;15.07;;;;;;;20.59;100.00;96599.47;5046468;28;20061;-69
2022/09/02 02:38:35;;;;;;;32.70;15.90;;;;;;;20.44;100.00;96598.28;5046884;28;20045;-67
2022/09/02 02:41:05;;;;;;;21.65;15.25;;;;;;;21.14;100.00;96675.06;5046507;28;20420;-69
2022/09/02 02:43:34;;;;;;;28.67;15.88;;;;;;;21.19;100.00;96682.97;5046712;28;20109;-68
2022/09/02 02:46:02;;;;;;;22.67;15.32;;;;;;;20.69;100.00;96615.25;5046234;28;20049;-68
2022/09/02 02:48:29;;;;;;;26.40;16.13;;;;;;;21.26;100.00;96682.72;5045506;28;20466;-68
2022/09/02 02:50:55;;;;;;;31.15;15.48;;;;;;;21.34;100.00;96667.19;5045303;28;20068;-68
2022/09/02 02:53:22;;;;;;;28.42;15.93;;;;;;;20.93;100.00;96602.44;5045086;28;20523;-67
2022/09/02 02:55:49;;;;;;;19.20;14.38;;;;;;;21.41;100.00;96666.97;5046851;28;20061;-68
2022/09/02 02:58:17;;;;;;;20.00;14.57;;;;;;;21.17;100.00;96628.28;5044795;28;21694;-68
2022/09/02 03:00:45;;;;;;;21.08;13.52;;;;;;;21.39;100.00;96658.19;5046861;28;20526;-68
2022/09/02 03:03:12;;;;;;;21.73;14.35;;;;;;;21.25;100.00;96652.97;5032006;28;20050;-68
2022/09/02 03:05:40;;;;;;;24.42;14.45;;;;;;;21.58;100.00;96665.63;5006574;28;20160;-68
2022/09/02 03:08:09;;;;;;;21.05;13.63;;;;;;;21.06;100.00;96639.91;5022057;28;20054;-69
2022/09/02 03:10:37;;;;;;;22.30;15.07;;;;;;;21.67;100.00;96662.91;5006261;28;20507;-68
2022/09/02 03:13:04;;;;;;;23.83;15.18;;;;;;;21.68;100.00;96658.84;5006837;28;20068;-68
2022/09/02 03:15:31;;;;;;;24.70;15.63;;;;;;;21.76;100.00;96665.88;5005038;28;20445;-69
2022/09/02 03:17:58;;;;;;;28.23;15.82;;;;;;;21.13;100.00;96554.38;5006366;28;20064;-68
2022/09/02 03:20:24;;;;;;;21.23;13.60;;;;;;;21.84;100.00;96660.78;5021403;28;20054;-68
2022/09/02 03:22:55;;;;;;;26.25;15.45;;;;;;;21.60;100.00;96643.41;5021309;28;20582;-68
2022/09/02 03:25:23;;;;;;;23.70;15.35;;;;;;;21.83;100.00;96676.13;5006340;28;20116;-68
2022/09/02 03:27:52;;;;;;;23.10;14.52;;;;;;;21.84;100.00;96678.50;5006484;28;20054;-67
2022/09/02 03:30:23;;;;;;;19.27;13.80;;;;;;;21.91;100.00;96678.25;5005368;28;20057;-68
2022/09/02 03:32:55;;;;;;;24.40;14.73;;;;;;;21.74;100.00;96645.75;5006107;28;20631;-68
2022/09/02 03:35:29;;;;;;;22.35;13.93;;;;;;;22.03;100.00;96688.75;5004492;28;20112;-68
2022/09/02 03:37:56;;;;;;;20.25;13.55;;;;;;;22.06;100.00;96695.50;5004633;28;20050;-68
2022/09/02 03:40:25;;;;;;;21.77;14.10;;;;;;;22.04;100.00;96687.47;5004621;28;20057;-68
2022/09/02 03:42:54;;;;;;;22.77;14.38;;;;;;;22.04;100.00;96690.31;5020705;28;20062;-68
2022/09/02 03:45:27;;;;;;;17.17;13.27;;;;;;;21.77;100.00;96653.34;5005969;28;20054;-68
2022/09/02 03:47:55;;;;;;;19.80;13.35;;;;;;;21.52;100.00;96622.31;5020478;28;20046;-68
2022/09/02 03:50:25;;;;;;;24.27;14.07;;;;;;;21.45;100.00;96600.00;5020667;28;20164;-70
2022/09/02 03:52:53;;;;;;;17.58;13.80;;;;;;;21.82;100.00;96664.06;5005968;28;20068;-68
2022/09/02 03:55:21;;;;;;;22.55;13.55;;;;;;;21.72;100.00;96639.78;5005946;28;20069;-68
2022/09/02 03:57:48;;;;;;;19.30;12.90;;;;;;;21.70;100.00;96627.38;5005668;28;20057;-68
2022/09/02 04:00:18;;;;;;;21.92;14.13;;;;;;;21.96;100.00;96671.25;5005546;28;20062;-69
2022/09/02 04:02:46;;;;;;;22.02;13.43;;;;;;;20.34;100.00;96408.09;5006388;28;20052;-69
2022/09/02 04:05:16;;;;;;;19.90;13.40;;;;;;;22.21;100.00;96693.75;5019969;28;20050;-69
2022/09/02 04:07:44;;;;;;;17.25;12.25;;;;;;;22.21;100.00;96691.72;5005514;28;20050;-69
2022/09/02 04:10:12;;;;;;;19.75;13.70;;;;;;;21.87;100.00;96699.34;5004250;28;20046;-69
2022/09/02 04:12:40;;;;;;;18.75;13.93;;;;;;;21.51;100.00;96671.50;5005433;28;20286;-68
2022/09/02 04:15:09;;;;;;;20.63;13.38;;;;;;;21.61;100.00;96697.78;5005651;28;20062;-68
2022/09/02 04:17:41;;;;;;;25.45;13.98;;;;;;;21.54;100.00;96693.16;5005387;28;20432;-68
2022/09/02 04:20:12;;;;;;;22.70;14.00;;;;;;;21.55;100.00;96694.72;5005820;28;20061;-68
2022/09/02 04:22:40;;;;;;;16.92;14.07;;;;;;;21.24;100.00;96685.22;5005306;28;20054;-68
2022/09/02 04:25:08;;;;;;;21.50;14.65;;;;;;;21.31;100.00;96701.91;5005967;28;20077;-68
2022/09/02 04:27:35;;;;;;;24.60;14.80;;;;;;;21.28;100.00;96702.81;5005425;28;20054;-68
2022/09/02 04:30:03;;;;;;;22.80;14.27;;;;;;;21.25;100.00;96714.97;5006076;28;20448;-68
2022/09/02 04:32:30;;;;;;;28.42;14.30;;;;;;;19.24;100.00;96407.63;5020131;28;20046;-68
2022/09/02 04:35:03;;;;;;;21.67;15.07;;;;;;;20.70;100.00;96639.34;5004032;28;20485;-68
2022/09/02 04:37:32;;;;;;;20.70;15.32;;;;;;;20.30;100.00;96576.19;5003911;28;20104;-68
2022/09/02 04:39:58;;;;;;;18.85;15.48;;;;;;;21.09;100.00;96720.69;5005476;28;20058;-67
2022/09/02 04:42:25;;;;;;;24.63;15.38;;;;;;;21.02;100.00;96701.19;5003231;28;20058;-68
2022/09/02 04:44:53;;;;;;;26.35;16.40;;;;;;;21.13;100.00;96710.13;5003525;28;20076;-68
2022/09/02 04:47:20;;;;;;;29.33;17.27;;;;;;;21.17;100.00;96710.78;5004721;28;20145;-68
2022/09/02 04:49:46;;;;;;;25.58;16.30;;;;;;;21.22;100.00;96718.69;5004300;28;20058;-68
2022/09/02 04:52:13;;;;;;;25.38;15.57;;;;;;;21.14;100.00;96675.06;5004610;28;20417;-66
2022/09/02 04:54:40;;;;;;;20.73;16.67;;;;;;;21.27;100.00;96715.31;5003619;28;20053;-67
2022/09/02 04:57:07;;;;;;;30.00;17.25;;;;;;;21.14;100.00;96686.34;5004537;28;20058;-68
2022/09/02 04:59:35;;;;;;;28.10;17.17;;;;;;;21.43;100.00;96720.88;5003393;28;20515;-69
2022/09/02 05:02:03;;;;;;;26.45;17.67;;;;;;;21.40;100.00;96715.34;5004700;28;20061;-69
2022/09/02 05:04:30;;;;;;;22.75;16.65;;;;;;;20.48;100.00;96574.44;5042745;28;20057;-68
2022/09/02 05:07:00;;;;;;;22.48;16.17;;;;;;;20.86;100.00;96644.91;5042800;28;20056;-67
2022/09/02 05:09:29;;;;;;;23.83;15.45;;;;;;;20.43;100.00;96577.00;5043273;28;20130;-68
2022/09/02 05:12:01;;;;;;;22.67;16.60;;;;;;;21.32;100.00;96713.97;5008167;28;20058;-68
2022/09/02 05:14:27;;;;;;;23.58;15.20;;;;;;;21.38;100.00;96715.00;5019882;28;20080;-68
2022/09/02 05:16:56;;;;;;;25.05;16.38;;;;;;;20.69;100.00;96616.03;5004612;28;20053;-68
2022/09/02 05:19:23;;;;;;;21.80;15.68;;;;;;;21.18;100.00;96726.47;5003193;28;20420;-67
2022/09/02 05:21:56;;;;;;;20.95;14.57;;;;;;;21.43;100.00;96720.88;5004408;28;20070;-67
2022/09/02 05:24:23;;;;;;;28.48;14.57;;;;;;;21.58;100.00;96721.19;5004024;28;20062;-67
2022/09/02 05:26:52;;;;;;;18.42;15.38;;;;;;;21.84;100.00;96728.47;5008434;28;20084;-67
2022/09/02 05:29:19;;;;;;;17.48;14.15;;;;;;;21.63;100.00;96650.97;5009080;28;20065;-67
2022/09/02 05:31:47;;;;;;;20.80;14.65;;;;;;;22.13;100.00;96689.63;5007027;28;20108;-68
2022/09/02 05:34:15;;;;;;;17.25;13.23;;;;;;;22.21;100.00;96657.88;5004468;28;20068;-68
2022/09/02 05:36:42;;;;;;;15.75;12.85;;;;;;;22.28;100.00;96645.53;5007043;28;20062;-69
2022/09/02 05:39:09;;;;;;;20.38;13.02;;;;;;;22.83;100.00;96697.63;5023558;28;20089;-68
2022/09/02 05:41:36;;;;;;;16.10;12.63;;;;;;;23.16;100.00;96707.28;5008177;28;20076;-68
2022/09/02 05:44:05;;;;;;;23.40;13.80;;;;;;;23.07;100.00;96718.53;5023431;28;20062;-67
2022/09/02 05:46:32;;;;;;;20.33;13.52;;;;;;;22.60;100.00;96683.97;5006913;28;20626;-68
2022/09/02 05:49:06;;;;;;;17.98;13.45;;;;;;;22.96;100.00;96712.50;5006984;28;20101;-68
2022/09/02 05:51:37;;;;;;;21.73;13.27;;;;;;;22.80;100.00;96721.94;5007085;28;20057;-68
2022/09/02 05:54:04;;;;;;;18.23;13.80;;;;;;;22.62;100.00;96723.84;5008290;28;20880;-68
2022/09/02 05:56:32;;;;;;;21.85;14.35;;;;;;;22.43;100.00;96694.59;5007103;28;20436;-69
2022/09/02 05:58:59;;;;;;;26.40;14.48;;;;;;;22.61;100.00;96725.06;5007966;28;20472;-72
2022/09/02 06:01:28;;;;;;;16.42;13.65;;;;;;;22.59;100.00;96721.94;5010508;28;20081;-62
2022/09/02 06:03:56;;;;;;;22.00;13.15;;;;;;;22.03;100.00;96606.94;5014671;28;20041;-63
2022/09/02 06:06:23;;;;;;;17.55;12.63;;;;;;;22.54;100.00;96697.88;5026824;28;20054;-66
2022/09/02 06:08:50;;;;;;;15.73;12.32;;;;;;;22.78;100.00;96723.66;5010824;28;20492;-64
2022/09/02 06:11:17;;;;;;;15.80;11.30;;;;;;;21.09;100.00;96408.03;5007385;28;20072;-61
2022/09/02 06:13:44;;;;;;;13.48;11.13;;;;;;;23.04;100.00;96692.00;5008517;28;20108;-67
2022/09/02 06:16:18;;;;;;;13.48;10.73;;;;;;;23.40;100.00;96692.25;5007455;28;20513;-63
2022/09/02 06:18:45;;;;;;;;;;;;;;;24.06;99.19;96721.16;5026703;28;20045;-62
2022/09/02 06:21:12;;;;;;;12.95;9.65;;;;;;;23.67;98.30;96657.63;5029670;28;19940;-64
2022/09/02 06:23:40;;;;;;;10.57;9.13;;;;;;;24.19;95.82;96731.09;5024380;28;20054;-60
2022/09/02 06:26:09;;;;;;;14.30;9.65;;;;;;;24.11;95.46;96718.50;5023374;28;20054;-63
2022/09/02 06:28:37;;;;;;;12.45;9.73;;;;;;;24.40;94.93;96735.88;5015593;28;20057;-59
2022/09/02 06:31:13;;;;;;;13.18;8.93;;;;;;;23.72;94.42;96635.19;5046232;28;20091;-65
2022/09/02 06:33:42;;;;;;;10.90;8.82;;;;;;;24.63;93.49;96738.09;5038018;28;20057;-61
2022/09/02 06:36:13;;;;;;;12.02;8.65;;;;;;;24.70;91.78;96737.84;5021958;28;20057;-66
2022/09/02 06:38:42;;;;;;;16.08;9.02;;;;;;;25.03;89.26;96733.13;5018863;28;20053;-62
2022/09/02 06:41:18;;;;;;;12.20;8.27;;;;;;;25.05;88.06;96736.25;5007357;28;20060;-64
2022/09/02 06:43:45;;;;;;;14.38;8.40;;;;;;;25.07;87.98;96708.22;5007675;28;20066;-61
2022/09/02 06:46:21;;;;;;;13.65;9.40;;;;;;;25.30;87.32;96735.94;5008423;28;20049;-64
2022/09/02 06:48:49;;;;;;;16.60;8.73;;;;;;;25.46;84.72;96719.84;5019139;28;20054;-68
2022/09/02 06:51:22;;;;;;;11.70;8.68;;;;;;;25.60;84.18;96753.22;5015406;28;20064;-62
2022/09/02 06:53:49;;;;;;;11.75;7.50;;;;;;;25.50;84.94;96746.78;5005502;28;20072;-65
2022/09/02 06:56:16;;;;;;;12.15;8.13;;;;;;;25.27;82.25;96736.09;5007152;28;20096;-63
2022/09/02 06:58:43;;;;;;;12.30;8.05;;;;;;;23.83;83.91;96597.97;5008050;28;20057;-66
2022/09/02 07:01:17;;;;;;;11.43;7.70;;;;;;;24.30;87.21;96663.50;5025285;28;20065;-61
2022/09/02 07:06:36;;;;;;;12.23;7.50;;;;;;;24.43;87.60;96728.47;5007005;28;20516;-70
2022/09/02 07:09:08;;;;;;;12.98;8.57;;;;;;;24.65;89.78;96768.81;5005361;28;20057;-62
2022/09/02 07:11:35;;;;;;;12.80;8.50;;;;;;;23.99;88.41;96682.63;5007083;28;20135;-71
2022/09/02 07:14:04;;;;;;;13.70;7.75;;;;;;;24.00;88.64;96684.19;5016667;28;20056;-72
2022/09/02 07:16:34;;;;;;;13.40;7.78;;;;;;;22.88;87.83;96519.09;5006554;28;20058;-67
2022/09/02 07:19:02;;;;;;;17.27;7.97;;;;;;;24.71;88.10;96756.41;5016511;28;20575;-62
2022/09/02 07:21:32;;;;;;;8.95;6.97;;;;;;;24.35;88.81;96677.03;5026446;28;20053;-67
2022/09/02 07:24:00;;;;;;;17.65;9.63;;;;;;;23.99;86.89;96648.66;5024284;28;20061;-66
2022/09/02 07:26:28;;;;;;;13.32;7.97;;;;;;;24.90;85.45;96769.34;5016646;28;20076;-62
2022/09/02 07:28:55;;;;;;;14.27;7.80;;;;;;;24.41;86.46;96672.31;5005931;28;20540;-64
2022/09/02 07:31:22;;;;;;;12.75;7.95;;;;;;;24.78;85.70;96729.81;5011688;28;20053;-71
2022/09/02 07:33:49;;;;;;;11.68;7.88;;;;;;;25.18;85.37;96762.41;5011628;28;20520;-63
2022/09/02 07:36:20;;;;;;;11.52;8.40;;;;;;;25.26;83.26;96766.50;5008071;28;20072;-65
2022/09/02 07:38:47;;;;;;;10.20;7.55;;;;;;;24.48;83.52;96691.03;5020291;28;20054;-71
2022/09/02 07:41:14;;;;;;;10.43;6.53;;;;;;;25.12;82.43;96730.28;5014931;28;20436;-67
2022/09/02 07:43:41;;;;;;;13.20;7.65;;;;;;;25.35;81.73;96719.56;5008112;28;20061;-69
2022/09/02 07:46:07;;;;;;;8.27;7.07;;;;;;;25.57;78.84;96708.78;5005323;28;20069;-69
2022/09/02 07:48:35;;;;;;;13.52;7.70;;;;;;;25.93;77.88;96708.66;5005509;28;20049;-61
2022/09/02 07:51:03;;;;;;;9.23;7.22;;;;;;;25.76;75.76;96636.53;5005385;28;20138;-65
2022/09/02 07:53:31;;;;;;;10.40;7.97;;;;;;;26.87;75.21;96765.63;5010076;28;20058;-63
2022/09/02 07:55:59;;;;;;;14.43;8.00;;;;;;;27.09;72.82;96766.09;5015035;28;20045;-72
2022/09/02 07:58:26;;;;;;;15.63;7.72;;;;;;;27.05;71.74;96764.69;5016422;28;20046;-62
2022/09/02 08:00:57;;;;;;;12.60;8.02;;;;;;;27.16;72.05;96770.63;5003832;28;20402;-65
2022/09/02 08:03:25;;;;;;;11.25;7.25;;;;;;;27.03;71.41;96716.06;5019105;28;20064;-66
2022/09/02 08:05:56;;;;;;;13.15;8.05;;;;;;;27.47;71.47;96768.94;5025084;28;20052;-67
2022/09/02 08:08:25;;;;;;;10.18;8.68;;;;;;;27.16;70.74;96725.88;5024949;28;20045;-64
2022/09/02 08:10:53;;;;;;;14.43;7.50;;;;;;;27.13;70.49;96720.38;5024988;28;20405;-63
2022/09/02 08:13:21;;;;;;;10.23;7.00;;;;;;;26.75;70.63;96700.50;5024921;28;20132;-66
2022/09/02 08:15:53;;;;;;;16.15;9.38;;;;;;;27.34;69.26;96764.78;5006421;28;20046;-69
2022/09/02 08:18:20;;;;;;;8.70;7.53;;;;;;;26.68;68.96;96656.94;5004848;28;20061;-70
2022/09/02 08:20:48;;;;;;;18.83;8.20;;;;;;;27.28;68.40;96761.84;5005072;28;20065;-72
2022/09/02 08:23:15;;;;;;;14.02;8.65;;;;;;;27.15;68.48;96738.53;5007271;28;20052;-72
2022/09/02 08:26:02;;;;;;;7.60;6.90;;;;;;;27.46;67.56;96750.28;5004953;28;20119;-62
2022/09/02 08:28:30;;;;;;;23.08;11.23;;;;;;;27.77;66.86;96759.13;5005258;28;20057;-68
2022/09/02 08:30:58;;;;;;;9.98;8.15;;;;;;;27.47;67.57;96749.03;5004644;28;20080;-65
2022/09/02 08:33:25;;;;;;;12.55;8.82;;;;;;;25.96;66.62;96474.91;5015964;28;20133;-71
2022/09/02 08:35:52;;;;;;;17.77;8.13;;;;;;;27.29;65.62;96649.63;5007388;28;20053;-64
2022/09/02 08:38:20;;;;;;;10.88;7.55;;;;;;;27.34;65.95;96657.47;5006140;28;20050;-76
2022/09/02 08:40:49;;;;;;;17.13;7.97;;;;;;;28.08;64.72;96750.91;5010839;28;20046;-72
2022/09/02 08:43:28;;;;;;;13.57;7.35;;;;;;;27.23;63.63;96611.72;5004604;28;20137;-67
2022/09/02 08:46:03;;;;;;;16.33;9.60;;;;;;;28.20;63.25;96731.13;5005279;28;20550;-66
2022/09/02 08:48:58;;;;;;;11.70;8.63;;;;;;;28.03;63.00;96691.78;5003107;28;20127;-74
2022/09/02 08:51:47;;;;;;;12.68;8.02;;;;;;;28.07;64.15;96700.88;5007376;28;20054;-63
2022/09/02 08:54:31;;;;;;;16.42;10.75;;;;;;;28.35;64.24;96717.63;5009736;28;20144;-68
2022/09/02 08:56:58;;;;;;;17.27;10.18;;;;;;;28.31;63.12;96717.06;5017260;28;20381;-73
2022/09/02 08:59:30;;;;;;;15.75;8.68;;;;;;;28.33;63.63;96714.50;5019084;28;20061;-68
2022/09/02 09:02:15;;;;;;;10.63;7.68;;;;;;;28.65;61.35;96708.50;5013049;28;20232;-70
2022/09/02 09:04:43;;;;;;;12.57;7.65;;;;;;;28.74;61.38;96699.03;5022937;28;20140;-70
2022/09/02 09:07:24;;;;;;;12.05;7.45;;;;;;;28.79;60.72;96706.84;5022220;28;20063;-68
2022/09/02 09:10:00;;;;;;;11.20;7.03;;;;;;;28.89;59.59;96705.44;5004819;28;20053;-68
2022/09/02 09:12:39;;;;;;;13.95;7.53;;;;;;;29.00;59.65;96699.84;5004614;28;20054;-63
2022/09/02 09:15:27;;;;;;;11.57;7.18;;;;;;;28.17;61.13;96608.34;5004659;28;20061;-70
2022/09/02 09:18:01;;;;;;;13.23;7.55;;;;;;;28.92;60.08;96707.28;5004602;28;20048;-64
2022/09/02 09:20:31;;;;;;;10.43;8.25;;;;;;;28.69;61.11;96702.59;5004442;28;20468;-68
2022/09/02 09:23:00;;;;;;;11.10;8.68;;;;;;;28.79;60.79;96712.56;5003051;28;20061;-68
2022/09/02 09:25:28;;;;;;;13.73;9.00;;;;;;;28.58;61.54;96706.06;5004256;28;20050;-70
2022/09/02 09:28:00;;;;;;;14.50;8.25;;;;;;;27.87;59.75;96592.59;5004375;28;20054;-68
2022/09/02 09:30:28;;;;;;;13.52;7.45;;;;;;;27.61;59.29;96540.47;5004623;28;20131;-69
2022/09/02 09:32:58;;;;;;;14.90;7.53;;;;;;;28.57;59.04;96675.19;5004565;28;20065;-68
2022/09/02 09:35:27;;;;;;;15.55;8.07;;;;;;;28.73;59.25;96697.44;5019797;28;20061;-70
2022/09/02 09:37:55;;;;;;;9.50;7.78;;;;;;;28.90;58.11;96704.13;5023912;28;20492;-68
2022/09/02 09:40:25;;;;;;;17.17;8.57;;;;;;;29.19;57.66;96662.00;5024444;28;20057;-69
2022/09/02 09:42:56;;;;;;;13.73;8.35;;;;;;;29.31;58.58;96694.25;5024004;28;20139;-63
2022/09/02 09:45:37;;;;;;;10.00;7.07;;;;;;;29.44;58.90;96694.66;5024239;28;20500;-63
2022/09/02 09:48:15;;;;;;;17.08;8.23;;;;;;;29.47;58.59;96693.66;5023877;28;20076;-63
2022/09/02 09:50:43;;;;;;;12.68;8.73;;;;;;;29.77;58.00;96680.72;5024186;28;20050;-63
2022/09/02 09:53:40;;;;;;;11.73;7.60;;;;;;;29.47;55.59;96625.16;5023762;28;20068;-65
2022/09/02 09:56:23;;;;;;;17.63;7.38;;;;;;;29.68;56.93;96646.66;5009948;28;20053;-65
2022/09/02 09:58:50;;;;;;;13.43;8.20;;;;;;;28.09;57.48;96433.44;5023998;28;20057;-64
2022/09/02 10:01:22;;;;;;;11.35;6.68;;;;;;;29.76;56.81;96687.75;5022485;28;20057;-64
2022/09/02 10:04:01;;;;;;;11.57;8.60;;;;;;;29.90;57.38;96689.66;5020130;28;20062;-67
2022/09/02 10:06:31;;;;;;;11.48;8.05;;;;;;;29.38;57.09;96690.97;5023482;28;20058;-64
2022/09/02 10:09:24;;;;;;;13.70;9.50;;;;;;;29.38;58.17;96685.28;5019219;28;20508;-65
2022/09/02 10:12:12;;;;;;;15.63;7.85;;;;;;;28.70;57.97;96615.75;5003543;28;20053;-63
2022/09/02 10:14:44;;;;;;;13.73;7.22;;;;;;;29.13;57.56;96666.06;5006123;28;20058;-69
2022/09/02 10:17:35;;;;;;;10.73;7.35;;;;;;;29.12;58.80;96684.47;5006711;28;20136;-74
2022/09/02 10:20:21;;;;;;;12.93;8.00;;;;;;;29.12;59.06;96701.56;5016881;28;20759;-64
2022/09/02 10:23:20;;;;;;;15.20;7.93;;;;;;;28.23;62.31;96704.50;5024969;28;20060;-62
2022/09/02 10:26:13;;;;;;;9.32;7.72;;;;;;;28.23;62.32;96701.66;5007758;28;20058;-64
2022/09/02 10:28:44;;;;;;;14.23;8.57;;;;;;;27.84;62.65;96706.69;5012689;28;20058;-67
2022/09/02 10:31:30;;;;;;;10.93;6.75;;;;;;;27.62;62.57;96697.78;5021354;28;20061;-65
2022/09/02 10:34:21;;;;;;;11.80;8.00;;;;;;;26.88;62.44;96642.09;5007295;28;20155;-72
2022/09/02 10:37:17;;;;;;;12.77;8.43;;;;;;;26.98;64.53;96703.31;5007245;28;20054;-68
2022/09/02 10:40:00;;;;;;;12.82;6.43;;;;;;;27.26;63.53;96698.97;5005927;28;20065;-64
2022/09/02 10:42:42;;;;;;;11.90;7.85;;;;;;;27.19;63.82;96705.00;5005864;28;20058;-70
2022/09/02 10:45:23;;;;;;;10.82;7.30;;;;;;;27.01;63.23;96699.50;5007484;28;20068;-71
2022/09/02 10:48:12;;;;;;;12.10;8.90;;;;;;;26.90;63.85;96701.31;4997072;28;20084;-70
2022/09/02 10:50:54;;;;;;;10.77;8.48;;;;;;;27.11;64.01;96691.66;5006250;28;20054;-73
2022/09/02 10:53:42;;;;;;;12.00;7.63;;;;;;;25.76;65.29;96511.66;5005118;28;20057;-71
2022/09/02 10:56:20;;;;;;;11.98;7.93;;;;;;;27.02;65.58;96686.03;5018268;28;20571;-72
2022/09/02 10:58:56;;;;;;;11.20;7.32;;;;;;;26.84;66.25;96687.00;5026924;28;20068;-67
2022/09/02 11:01:36;;;;;;;12.50;8.02;;;;;;;26.14;67.47;96614.75;5015855;28;20069;-65
2022/09/02 11:04:36;;;;;;;8.10;6.43;;;;;;;26.53;67.77;96690.22;5005376;28;20093;-68
2022/09/02 11:07:07;;;;;;;7.20;6.28;;;;;;;25.93;69.51;96640.53;5006723;28;20050;-69
2022/09/02 11:09:40;;;;;;;13.88;6.85;;;;;;;26.54;67.52;96702.38;5016991;28;20116;-74
2022/09/02 11:12:16;;;;;;;8.32;6.05;;;;;;;26.54;67.31;96719.41;5006220;28;20053;-65
2022/09/02 11:15:05;;;;;;;7.60;5.50;;;;;;;25.34;69.83;96683.97;5006111;28;20062;-63
2022/09/02 11:17:40;;;;;;;10.85;5.25;;;;;;;25.02;71.92;96720.19;5019496;28;20045;-69
2022/09/02 11:20:15;;;;;;;7.80;5.45;;;;;;;23.62;73.68;96610.97;5021382;28;20068;-71
2022/09/02 11:23:02;;;;;;;7.40;5.40;;;;;;;24.01;76.14;96725.41;5005937;28;20068;-71
2022/09/02 11:25:33;;;;;;;9.15;5.13;;;;;;;21.79;78.29;96416.81;5005479;28;20050;-66
2022/09/02 11:28:13;;;;;;;10.50;6.45;;;;;;;23.46;79.84;96717.88;5006058;28;20049;-64
2022/09/02 11:30:58;;;;;;;8.13;5.53;;;;;;;22.67;81.16;96661.91;5007925;28;20092;-64
2022/09/02 11:33:56;;;;;;;7.55;5.35;;;;;;;23.12;81.14;96709.47;5006456;28;20064;-71
2022/09/02 11:36:25;;;;;;;7.85;5.50;;;;;;;23.32;80.41;96707.91;5003330;28;20046;-71
2022/09/02 11:39:12;;;;;;;7.43;5.15;;;;;;;23.24;81.16;96705.75;5006447;28;20058;-69